Terminal Aerodrome Forecast
Issued by NWS

Home | Current Version | Previous Version | Text Only | Print | Product List | Glossary On
Versions: 1 2 3 4 5 6 7 8 9 10 11 12 13 14
000
FTUS44 KLZK 191600 AAA
TAFHOT
TAF AMD
KHOT 191607Z 1916/2012 08004KT 6SM BR OVC007
      TEMPO 1916/1920 4SM -RA BR OVC005
     FM200100 08003KT 5SM BR BKN007 OVC020 PROB30 2006/2012 4SM -DZ
      BR OVC005=

USA.gov is the U.S. government's official web portal to all federal, state and local government web resources and services.